createdAt,value
2018-06-23T00:01:27.951Z,15.68
2018-06-23T00:03:57.102Z,15.46
2018-06-23T00:06:26.267Z,15.34
2018-06-23T00:08:55.385Z,15.20
2018-06-23T00:11:24.503Z,15.02
2018-06-23T00:13:53.675Z,15.07
2018-06-23T00:16:23.462Z,14.88
2018-06-23T00:18:53.044Z,14.77
2018-06-23T00:21:22.108Z,14.67
2018-06-23T00:23:51.203Z,14.56
2018-06-23T00:26:35.665Z,14.39
2018-06-23T00:29:04.781Z,14.38
2018-06-23T00:31:33.886Z,14.44
2018-06-23T00:34:03.066Z,14.50
2018-06-23T00:36:32.170Z,14.71
2018-06-23T00:39:01.271Z,14.46
2018-06-23T00:41:30.441Z,14.34
2018-06-23T00:43:59.649Z,14.29
2018-06-23T00:46:28.838Z,14.35
2018-06-23T00:48:57.973Z,14.27
2018-06-23T00:51:27.245Z,14.28
2018-06-23T00:53:56.429Z,14.25
2018-06-23T00:56:25.579Z,13.49
2018-06-23T00:59:06.054Z,14.31
2018-06-23T01:01:35.203Z,14.13
2018-06-23T01:04:04.331Z,14.07
2018-06-23T01:06:33.654Z,13.97
2018-06-23T01:09:02.795Z,13.95
2018-06-23T01:11:31.988Z,13.86
2018-06-23T01:14:01.189Z,13.92
2018-06-23T01:16:30.342Z,13.84
2018-06-23T01:18:59.435Z,13.93
2018-06-23T01:21:28.560Z,13.85
2018-06-23T01:23:57.861Z,13.69
2018-06-23T01:26:27.116Z,13.73
2018-06-23T01:28:56.167Z,13.68
2018-06-23T01:31:28.101Z,13.58
2018-06-23T01:33:57.165Z,13.43
2018-06-23T01:36:26.231Z,13.36
2018-06-23T01:38:55.418Z,13.43
2018-06-23T01:41:24.505Z,13.46
2018-06-23T01:43:53.606Z,13.34
2018-06-23T01:46:22.781Z,13.28
2018-06-23T01:48:51.905Z,13.19
2018-06-23T01:51:21.835Z,13.19
2018-06-23T01:53:50.945Z,13.12
2018-06-23T01:56:20.188Z,12.94
2018-06-23T01:58:49.289Z,13.00
2018-06-23T02:01:18.454Z,13.06
2018-06-23T02:03:47.759Z,12.83
2018-06-23T02:06:17.669Z,13.02
2018-06-23T02:08:47.062Z,13.04
2018-06-23T02:11:16.205Z,13.12
2018-06-23T02:13:45.391Z,13.10
2018-06-23T02:16:19.921Z,13.10
2018-06-23T02:21:00.975Z,12.88
2018-06-23T02:23:35.461Z,13.00
2018-06-23T02:26:10.630Z,13.17
2018-06-23T02:30:47.908Z,13.10
2018-06-23T02:33:22.275Z,12.78
2018-06-23T02:35:51.344Z,12.86
2018-06-23T02:38:20.537Z,12.73
2018-06-23T02:40:50.245Z,12.91
2018-06-23T02:43:19.385Z,12.84
2018-06-23T02:45:49.352Z,12.95
2018-06-23T02:48:18.585Z,12.94
2018-06-23T02:50:48.369Z,12.98
2018-06-23T02:53:17.601Z,12.79
2018-06-23T02:55:46.767Z,12.72
2018-06-23T02:58:15.965Z,12.68
2018-06-23T03:00:45.181Z,12.64
2018-06-23T03:03:14.363Z,12.56
2018-06-23T03:05:43.600Z,12.57
2018-06-23T03:08:12.870Z,12.65
2018-06-23T03:10:42.073Z,12.51
2018-06-23T03:13:11.355Z,12.42
2018-06-23T03:15:40.476Z,12.22
2018-06-23T03:18:09.668Z,12.06
2018-06-23T03:20:38.864Z,12.04
2018-06-23T03:23:07.962Z,12.06
2018-06-23T03:25:37.091Z,12.06
2018-06-23T03:28:06.243Z,12.18
2018-06-23T03:30:35.348Z,12.23
2018-06-23T03:33:04.546Z,12.26
2018-06-23T03:35:33.845Z,12.20
2018-06-23T03:38:03.006Z,12.28
2018-06-23T03:40:32.140Z,12.28
2018-06-23T03:43:01.238Z,12.26
2018-06-23T03:45:30.434Z,12.23
2018-06-23T03:47:59.547Z,12.16
2018-06-23T03:50:28.929Z,11.96
2018-06-23T03:52:58.235Z,11.88
2018-06-23T03:55:27.491Z,11.93
2018-06-23T03:57:56.620Z,12.03
2018-06-23T04:00:25.820Z,11.97
2018-06-23T04:02:54.928Z,11.90
2018-06-23T04:05:24.029Z,11.97
2018-06-23T04:07:53.142Z,11.85
2018-06-23T04:10:22.428Z,11.85
2018-06-23T04:12:51.683Z,11.94
2018-06-23T04:15:20.907Z,12.13
2018-06-23T04:17:50.078Z,12.20
2018-06-23T04:20:19.204Z,12.24
2018-06-23T04:22:48.327Z,12.29
2018-06-23T04:25:17.501Z,12.12
2018-06-23T04:27:46.622Z,12.12
2018-06-23T04:30:15.794Z,12.21
2018-06-23T04:32:44.989Z,12.34
2018-06-23T04:35:14.214Z,12.49
2018-06-23T04:37:43.297Z,12.60
2018-06-23T04:40:12.432Z,12.55
2018-06-23T04:42:41.539Z,12.50
2018-06-23T04:45:10.745Z,12.41
2018-06-23T04:47:39.893Z,12.44
2018-06-23T04:50:09.174Z,12.22
2018-06-23T04:52:38.318Z,12.13
2018-06-23T04:55:07.570Z,12.28
2018-06-23T04:57:36.723Z,12.18
2018-06-23T05:00:05.844Z,12.22
2018-06-23T05:02:35.012Z,12.35
2018-06-23T05:05:04.131Z,12.56
2018-06-23T05:07:33.292Z,12.73
2018-06-23T05:10:02.394Z,12.79
2018-06-23T05:12:31.492Z,12.84
2018-06-23T05:15:00.553Z,12.86
2018-06-23T05:17:29.783Z,12.97
2018-06-23T05:19:59.326Z,13.04
2018-06-23T05:22:28.484Z,13.34
2018-06-23T05:24:57.676Z,13.48
2018-06-23T05:27:26.807Z,13.48
2018-06-23T05:29:55.940Z,13.49
2018-06-23T05:32:25.031Z,13.46
2018-06-23T05:34:54.107Z,13.39
2018-06-23T05:37:23.449Z,13.45
2018-06-23T05:39:52.553Z,13.65
2018-06-23T05:42:21.626Z,13.81
2018-06-23T05:44:50.741Z,13.81
2018-06-23T05:47:19.871Z,13.84
2018-06-23T05:49:49.063Z,14.05
2018-06-23T05:52:18.617Z,14.09
2018-06-23T05:54:48.014Z,14.10
2018-06-23T05:57:17.249Z,13.84
2018-06-23T05:59:46.533Z,12.95
2018-06-23T06:02:15.583Z,14.04
2018-06-23T06:04:44.777Z,14.17
2018-06-23T06:07:13.992Z,14.25
2018-06-23T06:09:43.085Z,14.29
2018-06-23T06:12:12.147Z,14.21
2018-06-23T06:14:41.265Z,14.25
2018-06-23T06:17:20.292Z,14.40
2018-06-23T06:19:50.337Z,14.20
2018-06-23T06:22:19.441Z,14.39
2018-06-23T06:24:49.165Z,14.61
2018-06-23T06:27:18.323Z,14.61
2018-06-23T06:29:48.409Z,14.83
2018-06-23T06:32:17.638Z,14.82
2018-06-23T06:34:46.826Z,14.95
2018-06-23T06:37:15.961Z,14.50
2018-06-23T06:39:45.881Z,14.44
2018-06-23T06:42:15.150Z,14.58
2018-06-23T06:44:44.409Z,14.75
2018-06-23T06:47:16.066Z,14.60
2018-06-23T06:49:45.196Z,14.62
2018-06-23T06:52:14.300Z,14.66
2018-06-23T06:54:43.755Z,14.62
2018-06-23T06:57:12.949Z,14.67
2018-06-23T06:59:42.117Z,14.68
2018-06-23T07:02:11.277Z,14.70
2018-06-23T07:04:40.469Z,14.79
2018-06-23T07:07:09.645Z,14.87
2018-06-23T07:09:38.841Z,14.99
2018-06-23T07:12:08.022Z,14.91
2018-06-23T07:14:37.457Z,14.86
2018-06-23T07:17:07.231Z,14.98
2018-06-23T07:19:36.364Z,15.12
2018-06-23T07:22:06.579Z,15.17
2018-06-23T07:24:35.780Z,15.26
2018-06-23T07:27:05.276Z,15.49
2018-06-23T07:29:34.478Z,15.63
2018-06-23T07:32:04.928Z,15.43
2018-06-23T07:34:34.213Z,15.67
2018-06-23T07:37:03.369Z,15.46
2018-06-23T07:39:32.624Z,15.51
2018-06-23T07:42:01.786Z,15.67
2018-06-23T07:44:30.894Z,15.68
2018-06-23T07:47:00.082Z,15.82
2018-06-23T07:49:29.189Z,15.91
2018-06-23T07:51:58.472Z,15.69
2018-06-23T07:54:27.615Z,15.74
2018-06-23T07:56:56.764Z,15.83
2018-06-23T07:59:25.835Z,15.66
2018-06-23T08:01:55.022Z,15.64
2018-06-23T08:04:24.168Z,15.66
2018-06-23T08:06:53.327Z,15.50
2018-06-23T08:09:22.465Z,15.43
2018-06-23T08:11:51.575Z,15.46
2018-06-23T08:14:20.661Z,15.53
2018-06-23T08:16:50.237Z,15.45
2018-06-23T08:19:19.458Z,15.65
2018-06-23T08:21:48.655Z,16.00
2018-06-23T08:24:18.264Z,16.38
2018-06-23T08:26:47.654Z,16.45
2018-06-23T08:29:16.823Z,16.69
2018-06-23T08:31:47.243Z,16.85
2018-06-23T08:34:17.091Z,17.01
2018-06-23T08:36:46.205Z,16.90
2018-06-23T08:39:15.698Z,16.89
2018-06-23T08:41:44.814Z,17.07
2018-06-23T08:44:13.950Z,17.51
2018-06-23T08:46:43.079Z,17.81
2018-06-23T08:49:13.359Z,17.82
2018-06-23T08:51:42.468Z,18.29
2018-06-23T08:54:11.590Z,18.18
2018-06-23T08:56:41.723Z,17.64
2018-06-23T08:59:10.803Z,17.41
2018-06-23T09:01:39.978Z,17.66
2018-06-23T09:04:09.265Z,17.28
2018-06-23T09:06:38.323Z,17.86
2018-06-23T09:09:08.519Z,18.07
2018-06-23T09:11:38.449Z,18.25
2018-06-23T09:14:08.477Z,18.40
2018-06-23T09:16:38.010Z,18.60
2018-06-23T09:19:07.291Z,18.81
2018-06-23T09:21:37.534Z,18.88
2018-06-23T09:24:06.934Z,18.41
2018-06-23T09:26:36.150Z,18.60
2018-06-23T09:29:06.102Z,18.87
2018-06-23T09:31:35.223Z,19.07
2018-06-23T09:34:04.680Z,19.29
2018-06-23T09:36:33.890Z,19.42
2018-06-23T09:39:02.986Z,19.52
2018-06-23T09:41:32.098Z,19.63
2018-06-23T09:44:01.190Z,19.38
2018-06-23T09:46:30.478Z,19.18
2018-06-23T09:48:59.886Z,19.18
2018-06-23T09:51:29.074Z,19.03
2018-06-23T09:53:58.125Z,18.51
2018-06-23T09:56:27.337Z,18.74
2018-06-23T09:58:56.462Z,18.75
2018-06-23T10:01:27.342Z,18.68
2018-06-23T10:03:56.582Z,18.97
2018-06-23T10:06:25.726Z,18.96
2018-06-23T10:08:55.858Z,19.39
2018-06-23T10:11:24.988Z,19.78
2018-06-23T10:13:54.941Z,19.96
2018-06-23T10:16:24.208Z,20.05
2018-06-23T10:18:53.273Z,19.65
2018-06-23T10:21:22.405Z,19.46
2018-06-23T10:23:51.457Z,19.30
2018-06-23T10:26:20.693Z,19.76
2018-06-23T10:28:50.531Z,19.70
2018-06-23T10:31:19.838Z,20.05
2018-06-23T10:33:48.962Z,20.28
2018-06-23T10:36:18.029Z,20.14
2018-06-23T10:38:47.277Z,20.34
2018-06-23T10:41:16.388Z,20.65
2018-06-23T10:43:45.811Z,20.91
2018-06-23T10:46:14.982Z,21.03
2018-06-23T10:48:44.114Z,21.02
2018-06-23T10:51:13.264Z,21.04
2018-06-23T10:53:43.043Z,21.47
2018-06-23T10:56:12.983Z,21.63
2018-06-23T10:58:42.952Z,21.77
2018-06-23T11:01:12.052Z,21.70
2018-06-23T11:03:41.370Z,21.27
2018-06-23T11:06:10.509Z,20.68
2018-06-23T11:08:39.587Z,20.79
2018-06-23T11:11:09.226Z,20.45
2018-06-23T11:13:38.406Z,20.74
2018-06-23T11:16:07.578Z,20.91
2018-06-23T11:18:36.749Z,20.99
2018-06-23T11:21:06.634Z,21.44
2018-06-23T11:23:36.369Z,21.65
2018-06-23T11:26:05.540Z,21.06
2018-06-23T11:28:35.189Z,20.92
2018-06-23T11:31:04.378Z,21.37
2018-06-23T11:33:33.751Z,21.58
2018-06-23T11:36:03.240Z,21.84
2018-06-23T11:38:32.505Z,21.80
2018-06-23T11:41:01.597Z,22.07
2018-06-23T11:43:30.829Z,22.40
2018-06-23T11:45:59.946Z,22.60
2018-06-23T11:48:29.105Z,22.33
2018-06-23T11:50:59.288Z,21.85
2018-06-23T11:53:28.611Z,21.98
2018-06-23T11:55:57.739Z,22.30
2018-06-23T11:58:26.888Z,22.53
2018-06-23T12:00:56.105Z,22.92
2018-06-23T12:03:25.222Z,23.11
2018-06-23T12:05:54.326Z,22.75
2018-06-23T12:08:24.460Z,22.41
2018-06-23T12:10:53.540Z,22.36
2018-06-23T12:13:22.639Z,22.29
2018-06-23T12:15:51.748Z,22.68
2018-06-23T12:18:20.824Z,22.91
2018-06-23T12:20:49.997Z,22.82
2018-06-23T12:23:19.183Z,22.88
2018-06-23T12:25:48.247Z,23.07
2018-06-23T12:28:17.381Z,23.24
2018-06-23T12:30:47.262Z,23.84
2018-06-23T12:33:16.495Z,23.82
2018-06-23T12:35:46.483Z,23.56
2018-06-23T12:38:15.626Z,23.00
2018-06-23T12:40:45.117Z,23.17
2018-06-23T12:43:14.227Z,23.38
2018-06-23T12:45:43.662Z,23.72
2018-06-23T12:48:12.755Z,23.73
2018-06-23T12:50:41.818Z,23.48
2018-06-23T12:53:11.021Z,23.07
2018-06-23T12:55:40.521Z,23.79
2018-06-23T12:58:09.890Z,23.70
2018-06-23T13:00:39.160Z,23.33
2018-06-23T13:03:08.329Z,23.10
2018-06-23T13:05:37.926Z,23.13
2018-06-23T13:08:08.693Z,23.30
2018-06-23T13:10:37.945Z,23.28
2018-06-23T13:13:07.530Z,23.06
2018-06-23T13:15:37.433Z,22.75
2018-06-23T13:18:07.397Z,22.37
2018-06-23T13:20:36.766Z,22.54
2018-06-23T13:23:06.505Z,22.98
2018-06-23T13:25:37.243Z,23.27
2018-06-23T13:28:06.496Z,23.18
2018-06-23T13:30:35.607Z,23.09
2018-06-23T13:33:12.198Z,22.87
2018-06-23T13:38:09.370Z,22.61
2018-06-23T13:40:39.545Z,22.73
2018-06-23T13:43:08.590Z,23.45
2018-06-23T13:45:37.750Z,23.65
2018-06-23T13:48:06.909Z,23.05
2018-06-23T13:50:36.697Z,22.74
2018-06-23T13:53:06.111Z,22.88
2018-06-23T13:55:35.217Z,23.49
2018-06-23T13:58:04.602Z,23.79
2018-06-23T14:00:33.690Z,23.82
2018-06-23T14:03:02.978Z,24.24
2018-06-23T14:05:32.201Z,24.55
2018-06-23T14:08:01.278Z,24.47
2018-06-23T14:10:30.391Z,24.54
2018-06-23T14:12:59.706Z,24.28
2018-06-23T14:15:28.795Z,24.71
2018-06-23T14:17:57.987Z,25.07
2018-06-23T14:20:27.237Z,24.98
2018-06-23T14:22:56.361Z,24.86
2018-06-23T14:25:25.839Z,24.35
2018-06-23T14:27:54.970Z,24.27
2018-06-23T14:30:24.122Z,23.95
2018-06-23T14:32:53.229Z,23.30
2018-06-23T14:35:22.350Z,23.47
2018-06-23T14:37:53.062Z,23.60
2018-06-23T14:40:22.159Z,23.26
2018-06-23T14:42:51.260Z,23.28
2018-06-23T14:45:20.431Z,23.29
2018-06-23T14:47:49.575Z,23.94
2018-06-23T14:50:18.650Z,24.40
2018-06-23T14:52:47.874Z,24.60
2018-06-23T14:55:17.021Z,24.50
2018-06-23T14:57:46.182Z,24.61
2018-06-23T15:00:15.337Z,24.68
2018-06-23T15:02:45.050Z,24.56
2018-06-23T15:05:14.121Z,24.51
2018-06-23T15:07:43.240Z,24.66
2018-06-23T15:10:23.703Z,25.02
2018-06-23T15:13:23.637Z,25.48
2018-06-23T15:15:52.771Z,25.54
2018-06-23T15:18:21.865Z,25.11
2018-06-23T15:20:51.037Z,24.38
2018-06-23T15:23:20.266Z,24.17
2018-06-23T15:25:49.485Z,23.71
2018-06-23T15:28:18.608Z,23.33
2018-06-23T15:30:47.811Z,23.21
2018-06-23T15:33:16.927Z,23.42
2018-06-23T15:35:46.106Z,23.40
2018-06-23T15:38:15.959Z,23.38
2018-06-23T15:40:45.001Z,23.24
2018-06-23T15:43:14.095Z,23.15
2018-06-23T15:45:43.222Z,23.11
2018-06-23T15:48:12.295Z,22.94
2018-06-23T15:50:41.497Z,23.15
2018-06-23T15:53:10.713Z,23.07
2018-06-23T15:55:39.858Z,22.90
2018-06-23T15:58:08.954Z,23.40
2018-06-23T16:00:38.893Z,23.97
2018-06-23T16:03:07.981Z,24.45
2018-06-23T16:05:37.081Z,23.94
2018-06-23T16:08:06.403Z,23.69
2018-06-23T16:10:35.542Z,23.02
2018-06-23T16:13:04.736Z,22.63
2018-06-23T16:15:33.895Z,22.43
2018-06-23T16:18:03.059Z,22.40
2018-06-23T16:20:32.168Z,22.25
2018-06-23T16:23:01.300Z,22.23
2018-06-23T16:25:30.454Z,22.17
2018-06-23T16:27:59.757Z,22.14
2018-06-23T16:30:29.100Z,21.71
2018-06-23T16:32:58.160Z,21.46
2018-06-23T16:35:28.208Z,21.59
2018-06-23T16:37:57.075Z,21.57
2018-06-23T16:40:26.299Z,21.74
2018-06-23T16:42:55.347Z,21.60
2018-06-23T16:45:24.769Z,21.49
2018-06-23T16:47:53.886Z,21.55
2018-06-23T16:50:23.008Z,21.44
2018-06-23T16:52:52.141Z,21.30
2018-06-23T16:55:21.333Z,21.47
2018-06-23T16:57:50.442Z,21.45
2018-06-23T17:00:19.730Z,21.37
2018-06-23T17:02:48.932Z,21.50
2018-06-23T17:05:18.481Z,21.38
2018-06-23T17:07:47.602Z,21.28
2018-06-23T17:10:16.725Z,21.06
2018-06-23T17:12:46.034Z,20.79
2018-06-23T17:15:15.194Z,20.83
2018-06-23T17:17:44.228Z,20.62
2018-06-23T17:20:13.371Z,20.91
2018-06-23T17:22:42.521Z,21.00
2018-06-23T17:25:11.614Z,21.09
2018-06-23T17:27:40.699Z,21.23
2018-06-23T17:30:09.815Z,21.17
2018-06-23T17:32:38.990Z,21.22
2018-06-23T17:35:08.093Z,21.40
2018-06-23T17:37:37.249Z,21.35
2018-06-23T17:40:06.460Z,21.13
2018-06-23T17:42:35.578Z,20.98
2018-06-23T17:45:05.289Z,21.05
2018-06-23T17:47:34.963Z,20.88
2018-06-23T17:50:05.906Z,20.81
2018-06-23T17:52:35.086Z,20.90
2018-06-23T17:55:05.387Z,20.70
2018-06-23T17:57:34.696Z,20.80
2018-06-23T18:00:04.680Z,20.48
2018-06-23T18:02:33.838Z,20.37
2018-06-23T18:05:03.617Z,20.42
2018-06-23T18:07:33.316Z,20.58
2018-06-23T18:10:02.429Z,20.44
2018-06-23T18:12:31.540Z,20.37
2018-06-23T18:15:00.601Z,20.29
2018-06-23T18:17:29.675Z,20.18
2018-06-23T18:19:58.805Z,19.96
2018-06-23T18:22:27.877Z,20.04
2018-06-23T18:24:56.961Z,20.03
2018-06-23T18:27:26.047Z,19.89
2018-06-23T18:29:55.153Z,19.92
2018-06-23T18:32:24.249Z,19.88
2018-06-23T18:34:53.417Z,19.85
2018-06-23T18:37:22.500Z,19.81
2018-06-23T18:39:52.900Z,19.87
2018-06-23T18:42:22.360Z,19.72
2018-06-23T18:44:51.563Z,19.56
2018-06-23T18:47:20.647Z,19.55
2018-06-23T18:49:50.245Z,19.63
2018-06-23T18:52:19.345Z,19.68
2018-06-23T18:54:48.418Z,19.66
2018-06-23T18:57:17.486Z,19.70
2018-06-23T18:59:46.621Z,19.63
2018-06-23T19:02:15.715Z,19.57
2018-06-23T19:04:44.812Z,19.61
2018-06-23T19:07:13.908Z,19.64
2018-06-23T19:09:43.442Z,19.58
2018-06-23T19:12:12.569Z,19.78
2018-06-23T19:14:41.692Z,19.56
2018-06-23T19:17:10.826Z,19.50
2018-06-23T19:19:39.904Z,19.56
2018-06-23T19:22:10.293Z,19.52
2018-06-23T19:24:39.358Z,19.24
2018-06-23T19:27:08.462Z,19.35
2018-06-23T19:29:37.603Z,19.32
2018-06-23T19:32:06.738Z,19.28
2018-06-23T19:34:35.839Z,19.13
2018-06-23T19:37:05.997Z,19.09
2018-06-23T19:39:35.166Z,19.17
2018-06-23T19:42:05.453Z,19.03
2018-06-23T19:44:34.528Z,18.96
2018-06-23T19:47:03.717Z,19.00
2018-06-23T19:49:32.758Z,18.86
2018-06-23T19:52:02.408Z,18.75
2018-06-23T19:54:31.455Z,18.76
2018-06-23T19:57:00.741Z,18.74
2018-06-23T19:59:29.843Z,18.77
2018-06-23T20:01:59.014Z,18.78
2018-06-23T20:04:28.134Z,18.94
2018-06-23T20:06:58.019Z,18.83
2018-06-23T20:09:27.161Z,18.82
2018-06-23T20:11:56.287Z,18.68
2018-06-23T20:14:25.878Z,18.70
2018-06-23T20:16:55.025Z,18.62
2018-06-23T20:19:24.085Z,18.56
2018-06-23T20:21:53.526Z,18.57
2018-06-23T20:24:22.637Z,18.51
2018-06-23T20:26:51.949Z,18.46
2018-06-23T20:29:21.060Z,18.37
2018-06-23T20:31:50.181Z,18.52
2018-06-23T20:34:19.343Z,18.58
2018-06-23T20:36:48.470Z,18.46
2018-06-23T20:39:17.617Z,18.30
2018-06-23T20:41:46.789Z,18.20
2018-06-23T20:44:15.811Z,18.16
2018-06-23T20:46:44.936Z,18.21
2018-06-23T20:49:14.217Z,18.34
2018-06-23T20:51:43.364Z,18.48
2018-06-23T20:54:12.723Z,18.42
2018-06-23T20:56:41.810Z,18.20
2018-06-23T20:59:10.917Z,17.99
2018-06-23T21:01:39.999Z,17.94
2018-06-23T21:04:09.210Z,17.94
2018-06-23T21:06:38.396Z,18.06
2018-06-23T21:09:09.295Z,18.01
2018-06-23T21:11:38.434Z,18.31
2018-06-23T21:14:07.557Z,18.43
2018-06-23T21:16:36.646Z,18.53
2018-06-23T21:19:06.358Z,18.35
2018-06-23T21:21:36.711Z,18.20
2018-06-23T21:24:06.119Z,18.31
2018-06-23T21:26:35.314Z,18.47
2018-06-23T21:29:04.477Z,18.52
2018-06-23T21:31:33.689Z,18.31
2018-06-23T21:34:02.769Z,18.40
2018-06-23T21:36:31.879Z,18.49
2018-06-23T21:39:01.042Z,18.31
2018-06-23T21:41:30.426Z,18.09
2018-06-23T21:43:59.549Z,17.95
2018-06-23T21:46:29.020Z,17.86
2018-06-23T21:48:58.186Z,17.94
2018-06-23T21:51:27.319Z,17.99
2018-06-23T21:53:56.423Z,18.06
2018-06-23T21:56:25.585Z,17.88
2018-06-23T21:58:54.736Z,17.99
2018-06-23T22:01:23.828Z,18.00
2018-06-23T22:03:52.968Z,18.01
2018-06-23T22:06:22.182Z,17.96
2018-06-23T22:08:51.398Z,17.98
2018-06-23T22:11:20.529Z,17.93
2018-06-23T22:13:50.283Z,17.88
2018-06-23T22:16:19.339Z,17.78
2018-06-23T22:18:48.453Z,17.71
2018-06-23T22:21:17.606Z,17.63
2018-06-23T22:23:46.685Z,17.66
2018-06-23T22:26:15.749Z,17.71
2018-06-23T22:28:44.909Z,17.65
2018-06-23T22:31:14.010Z,17.60
2018-06-23T22:33:43.196Z,17.59
2018-06-23T22:36:12.213Z,17.59
2018-06-23T22:38:41.339Z,17.58
2018-06-23T22:41:10.502Z,17.53
2018-06-23T22:43:39.597Z,17.60
2018-06-23T22:46:08.708Z,17.55
2018-06-23T22:48:37.873Z,17.42
2018-06-23T22:51:06.987Z,17.40
2018-06-23T22:53:36.082Z,17.31
2018-06-23T22:56:05.594Z,17.26
2018-06-23T22:58:34.690Z,17.26
2018-06-23T23:01:03.790Z,17.23
2018-06-23T23:03:33.074Z,17.17
2018-06-23T23:06:02.475Z,17.15
2018-06-23T23:08:32.030Z,17.11
2018-06-23T23:11:01.100Z,16.95
2018-06-23T23:13:30.674Z,16.86
2018-06-23T23:16:00.162Z,16.87
2018-06-23T23:18:29.230Z,16.87
2018-06-23T23:20:58.367Z,16.89
2018-06-23T23:23:27.488Z,16.90
2018-06-23T23:25:56.819Z,16.85
2018-06-23T23:28:25.951Z,16.81
2018-06-23T23:30:55.939Z,16.81
2018-06-23T23:33:25.098Z,16.75
2018-06-23T23:35:54.198Z,16.70
2018-06-23T23:38:23.286Z,16.62
2018-06-23T23:40:52.539Z,16.63
2018-06-23T23:43:21.560Z,16.51
2018-06-23T23:45:50.653Z,16.47
2018-06-23T23:48:19.807Z,16.41
2018-06-23T23:50:49.268Z,16.44
2018-06-23T23:53:18.369Z,16.43
2018-06-23T23:55:47.447Z,16.37
2018-06-23T23:58:16.544Z,16.30
